GPKHA EGNM-LFOB
Flight info
| Callsign | GPKHA |
|---|---|
| Flight time | 1h 27m |
| Altitude | 24000 |
| Route | POL2X POL P18 LISTO UL612 WOD UM605 PETAX UZ296 VELOL VELOL1B |
| Aircraft | PC12/L-SDFGRWY/S |
Departure
| Time | 2026-05-08 15:09 |
|---|---|
| Airport | Leeds Bradford Airport (EGNM) |
Arrival
| Time | 2026-05-08 16:37 |
|---|---|
| Airport | Beauvais-Tillé airport (LFOB) |
| Time | Latitude | Longitude | Altitude | Speed | Heading |
|---|---|---|---|---|---|
| 2026-05-08 14:51 | 53.86378 | -1.66298 | 668 ft | 0 kts | 139° |
| 2026-05-08 15:02 | 53.86375 | -1.66292 | 667 ft | 2 kts | 87° |
| 2026-05-08 15:03 | 53.86422 | -1.66267 | 665 ft | 11 kts | 345° |
| 2026-05-08 15:03 | 53.86480 | -1.66242 | 663 ft | 8 kts | 325° |
| 2026-05-08 15:03 | 53.86505 | -1.66281 | 663 ft | 16 kts | 317° |
| 2026-05-08 15:03 | 53.86576 | -1.66454 | 665 ft | 2 kts | 297° |
| 2026-05-08 15:04 | 53.86605 | -1.66536 | 665 ft | 20 kts | 302° |
| 2026-05-08 15:04 | 53.86651 | -1.66683 | 663 ft | 11 kts | 298° |
| 2026-05-08 15:04 | 53.86697 | -1.66732 | 663 ft | 5 kts | 24° |
| 2026-05-08 15:04 | 53.86763 | -1.66668 | 664 ft | 8 kts | 32° |
| 2026-05-08 15:05 | 53.86837 | -1.66586 | 669 ft | 15 kts | 34° |
| 2026-05-08 15:05 | 53.86907 | -1.66545 | 668 ft | 12 kts | 320° |
| 2026-05-08 15:05 | 53.86989 | -1.66673 | 667 ft | 15 kts | 317° |
| 2026-05-08 15:05 | 53.87068 | -1.66790 | 670 ft | 16 kts | 317° |
| 2026-05-08 15:06 | 53.87167 | -1.66943 | 675 ft | 17 kts | 316° |
| 2026-05-08 15:06 | 53.87195 | -1.66983 | 676 ft | 5 kts | 179° |
| 2026-05-08 15:06 | 53.87188 | -1.66977 | 676 ft | 0 kts | 135° |
| 2026-05-08 15:08 | 53.87185 | -1.66971 | 676 ft | 6 kts | 137° |
| 2026-05-08 15:08 | 53.87107 | -1.66854 | 671 ft | 45 kts | 138° |
| 2026-05-08 15:09 | 53.86721 | -1.66258 | 670 ft | 101 kts | 137° |
| 2026-05-08 15:09 | 53.86136 | -1.65373 | 832 ft | 122 kts | 137° |
| 2026-05-08 15:09 | 53.85463 | -1.64404 | 1089 ft | 131 kts | 138° |
| 2026-05-08 15:09 | 53.84796 | -1.63322 | 1371 ft | 136 kts | 132° |
| 2026-05-08 15:10 | 53.84126 | -1.62204 | 2011 ft | 131 kts | 141° |
| 2026-05-08 15:10 | 53.83439 | -1.61195 | 2652 ft | 131 kts | 141° |
| 2026-05-08 15:10 | 53.82662 | -1.60410 | 3272 ft | 131 kts | 160° |
| 2026-05-08 15:10 | 53.81746 | -1.60094 | 3777 ft | 138 kts | 179° |
| 2026-05-08 15:11 | 53.80805 | -1.60317 | 4408 ft | 136 kts | 197° |
| 2026-05-08 15:11 | 53.79964 | -1.61057 | 5013 ft | 138 kts | 216° |
| 2026-05-08 15:11 | 53.79307 | -1.62257 | 5599 ft | 142 kts | 234° |
| 2026-05-08 15:11 | 53.78930 | -1.63779 | 6193 ft | 144 kts | 253° |
| 2026-05-08 15:12 | 53.78767 | -1.65474 | 6732 ft | 147 kts | 257° |
| 2026-05-08 15:12 | 53.78590 | -1.67193 | 7267 ft | 149 kts | 257° |
| 2026-05-08 15:12 | 53.78418 | -1.68927 | 7816 ft | 151 kts | 257° |
| 2026-05-08 15:12 | 53.78242 | -1.70681 | 8380 ft | 153 kts | 257° |
| 2026-05-08 15:13 | 53.78069 | -1.72458 | 9041 ft | 154 kts | 257° |
| 2026-05-08 15:13 | 53.77900 | -1.74251 | 9794 ft | 155 kts | 257° |
| 2026-05-08 15:13 | 53.77726 | -1.76058 | 10462 ft | 157 kts | 257° |
| 2026-05-08 15:13 | 53.77610 | -1.77265 | 10896 ft | 157 kts | 257° |
| 2026-05-08 15:14 | 53.77374 | -1.79712 | 11813 ft | 158 kts | 257° |
| 2026-05-08 15:14 | 53.77196 | -1.81552 | 12503 ft | 159 kts | 257° |
| 2026-05-08 15:14 | 53.77020 | -1.83377 | 13196 ft | 160 kts | 257° |
| 2026-05-08 15:14 | 53.76837 | -1.85260 | 13915 ft | 161 kts | 257° |
| 2026-05-08 15:15 | 53.76657 | -1.87108 | 14521 ft | 162 kts | 257° |
| 2026-05-08 15:15 | 53.76475 | -1.88989 | 15148 ft | 162 kts | 257° |
| 2026-05-08 15:15 | 53.76291 | -1.90872 | 15802 ft | 163 kts | 257° |
| 2026-05-08 15:15 | 53.76107 | -1.92759 | 16460 ft | 163 kts | 257° |
| 2026-05-08 15:16 | 53.75922 | -1.94657 | 17131 ft | 163 kts | 257° |
| 2026-05-08 15:16 | 53.75735 | -1.96556 | 17806 ft | 164 kts | 257° |
| 2026-05-08 15:16 | 53.75549 | -1.98460 | 18449 ft | 165 kts | 257° |
| 2026-05-08 15:16 | 53.75360 | -2.00387 | 19028 ft | 166 kts | 257° |
| 2026-05-08 15:17 | 53.75168 | -2.02327 | 19586 ft | 168 kts | 257° |
| 2026-05-08 15:17 | 53.74977 | -2.04276 | 20163 ft | 169 kts | 257° |
| 2026-05-08 15:17 | 53.74692 | -2.06322 | 20346 ft | 189 kts | 246° |
| 2026-05-08 15:17 | 53.73968 | -2.08335 | 20381 ft | 213 kts | 229° |
| 2026-05-08 15:18 | 53.72792 | -2.09973 | 20423 ft | 233 kts | 211° |
| 2026-05-08 15:18 | 53.71204 | -2.10864 | 20446 ft | 249 kts | 191° |
| 2026-05-08 15:18 | 53.69469 | -2.11145 | 20468 ft | 246 kts | 188° |
| 2026-05-08 15:18 | 53.67719 | -2.11401 | 20484 ft | 257 kts | 188° |
| 2026-05-08 15:19 | 53.65912 | -2.11692 | 20502 ft | 263 kts | 188° |
| 2026-05-08 15:19 | 53.64074 | -2.11993 | 20520 ft | 267 kts | 188° |
| 2026-05-08 15:19 | 53.62210 | -2.12293 | 20533 ft | 269 kts | 188° |
| 2026-05-08 15:19 | 53.60366 | -2.12588 | 20558 ft | 270 kts | 188° |
| 2026-05-08 15:20 | 53.58474 | -2.12890 | 20603 ft | 270 kts | 188° |
| 2026-05-08 15:20 | 53.56626 | -2.13187 | 20649 ft | 270 kts | 188° |
| 2026-05-08 15:20 | 53.54749 | -2.13488 | 20692 ft | 270 kts | 188° |
| 2026-05-08 15:20 | 53.52879 | -2.13788 | 20727 ft | 270 kts | 188° |
| 2026-05-08 15:21 | 53.51012 | -2.14087 | 20782 ft | 270 kts | 188° |
| 2026-05-08 15:21 | 53.49139 | -2.14386 | 20827 ft | 270 kts | 188° |
| 2026-05-08 15:21 | 53.47270 | -2.14684 | 20865 ft | 270 kts | 188° |
| 2026-05-08 15:21 | 53.45400 | -2.14983 | 20904 ft | 269 kts | 188° |
| 2026-05-08 15:22 | 53.43557 | -2.15277 | 20951 ft | 270 kts | 188° |
| 2026-05-08 15:22 | 53.41687 | -2.15575 | 20996 ft | 270 kts | 188° |
| 2026-05-08 15:22 | 53.39822 | -2.15872 | 21037 ft | 269 kts | 188° |
| 2026-05-08 15:22 | 53.37952 | -2.16169 | 21077 ft | 269 kts | 188° |
| 2026-05-08 15:23 | 53.36161 | -2.16448 | 21770 ft | 246 kts | 189° |
| 2026-05-08 15:23 | 53.34543 | -2.16701 | 22754 ft | 222 kts | 189° |
| 2026-05-08 15:23 | 53.33031 | -2.16945 | 23394 ft | 218 kts | 190° |
| 2026-05-08 15:23 | 53.31522 | -2.17191 | 23843 ft | 219 kts | 190° |
| 2026-05-08 15:24 | 53.29979 | -2.17438 | 24065 ft | 228 kts | 190° |
| 2026-05-08 15:24 | 53.28375 | -2.17694 | 24070 ft | 232 kts | 190° |
| 2026-05-08 15:24 | 53.26797 | -2.17935 | 24066 ft | 222 kts | 190° |
| 2026-05-08 15:24 | 53.25251 | -2.18181 | 24078 ft | 231 kts | 190° |
| 2026-05-08 15:25 | 53.23592 | -2.18453 | 24088 ft | 246 kts | 190° |
| 2026-05-08 15:25 | 53.21869 | -2.18724 | 24085 ft | 256 kts | 189° |
| 2026-05-08 15:25 | 53.20064 | -2.19004 | 24086 ft | 264 kts | 189° |
| 2026-05-08 15:25 | 53.18220 | -2.19293 | 24083 ft | 268 kts | 189° |
| 2026-05-08 15:26 | 53.16356 | -2.19586 | 24078 ft | 269 kts | 189° |
| 2026-05-08 15:26 | 53.14482 | -2.19608 | 24072 ft | 273 kts | 176° |
| 2026-05-08 15:26 | 53.12640 | -2.18757 | 24073 ft | 278 kts | 163° |
| 2026-05-08 15:26 | 53.10860 | -2.17499 | 24076 ft | 278 kts | 162° |
| 2026-05-08 15:27 | 53.09080 | -2.16257 | 24075 ft | 278 kts | 162° |
| 2026-05-08 15:27 | 53.07293 | -2.15026 | 24073 ft | 278 kts | 162° |
| 2026-05-08 15:27 | 53.05504 | -2.13794 | 24073 ft | 278 kts | 162° |
| 2026-05-08 15:27 | 53.03719 | -2.12561 | 24070 ft | 278 kts | 162° |
| 2026-05-08 15:28 | 53.01935 | -2.11329 | 24065 ft | 278 kts | 162° |
| 2026-05-08 15:28 | 53.00145 | -2.10094 | 24064 ft | 278 kts | 162° |
| 2026-05-08 15:28 | 52.98394 | -2.08889 | 24053 ft | 278 kts | 162° |
| 2026-05-08 15:28 | 52.96610 | -2.07661 | 24053 ft | 278 kts | 162° |
| 2026-05-08 15:29 | 52.94822 | -2.06432 | 24051 ft | 278 kts | 162° |
| 2026-05-08 15:29 | 52.93011 | -2.05188 | 24067 ft | 276 kts | 162° |
| 2026-05-08 15:29 | 52.91252 | -2.03982 | 24059 ft | 278 kts | 162° |
| 2026-05-08 15:29 | 52.89459 | -2.02753 | 24060 ft | 279 kts | 162° |
| 2026-05-08 15:30 | 52.87658 | -2.01518 | 24056 ft | 281 kts | 162° |
| 2026-05-08 15:30 | 52.85846 | -2.00276 | 24056 ft | 282 kts | 162° |
| 2026-05-08 15:30 | 52.84026 | -1.99033 | 24053 ft | 283 kts | 162° |
| 2026-05-08 15:30 | 52.82206 | -1.97790 | 24054 ft | 283 kts | 162° |
| 2026-05-08 15:31 | 52.80387 | -1.96548 | 24054 ft | 283 kts | 162° |
| 2026-05-08 15:31 | 52.78568 | -1.95307 | 24055 ft | 283 kts | 162° |
| 2026-05-08 15:31 | 52.76749 | -1.94068 | 24054 ft | 283 kts | 162° |
| 2026-05-08 15:31 | 52.74927 | -1.92828 | 24041 ft | 283 kts | 162° |
| 2026-05-08 15:32 | 52.73107 | -1.91590 | 24054 ft | 283 kts | 161° |
| 2026-05-08 15:32 | 52.71285 | -1.90352 | 24053 ft | 283 kts | 161° |
| 2026-05-08 15:32 | 52.69461 | -1.89114 | 24054 ft | 284 kts | 161° |
| 2026-05-08 15:32 | 52.67633 | -1.87874 | 24054 ft | 284 kts | 161° |
| 2026-05-08 15:33 | 52.65808 | -1.86637 | 24062 ft | 284 kts | 161° |
| 2026-05-08 15:33 | 52.63981 | -1.85400 | 24065 ft | 284 kts | 161° |
| 2026-05-08 15:33 | 52.62151 | -1.84162 | 24066 ft | 284 kts | 161° |
| 2026-05-08 15:33 | 52.60346 | -1.82942 | 24067 ft | 284 kts | 161° |
| 2026-05-08 15:34 | 52.58516 | -1.81707 | 24071 ft | 284 kts | 162° |
| 2026-05-08 15:34 | 52.56686 | -1.80472 | 24073 ft | 284 kts | 162° |
| 2026-05-08 15:34 | 52.54855 | -1.79239 | 24074 ft | 284 kts | 162° |
| 2026-05-08 15:34 | 52.53030 | -1.78010 | 24074 ft | 284 kts | 162° |
| 2026-05-08 15:35 | 52.51202 | -1.76779 | 24071 ft | 284 kts | 162° |
| 2026-05-08 15:35 | 52.49376 | -1.75552 | 24070 ft | 284 kts | 161° |
| 2026-05-08 15:35 | 52.47542 | -1.74321 | 24067 ft | 284 kts | 161° |
| 2026-05-08 15:35 | 52.45703 | -1.73087 | 24069 ft | 284 kts | 161° |
| 2026-05-08 15:36 | 52.43863 | -1.71853 | 24068 ft | 285 kts | 161° |
| 2026-05-08 15:36 | 52.42645 | -1.71038 | 24065 ft | 285 kts | 161° |
| 2026-05-08 15:36 | 52.40255 | -1.69434 | 24067 ft | 277 kts | 162° |
| 2026-05-08 15:36 | 52.38449 | -1.68231 | 24068 ft | 282 kts | 162° |
| 2026-05-08 15:37 | 52.36626 | -1.67016 | 24071 ft | 285 kts | 161° |
| 2026-05-08 15:37 | 52.34812 | -1.65695 | 24071 ft | 286 kts | 157° |
| 2026-05-08 15:37 | 52.33034 | -1.64214 | 24072 ft | 286 kts | 156° |
| 2026-05-08 15:37 | 52.31260 | -1.62739 | 24073 ft | 286 kts | 157° |
| 2026-05-08 15:38 | 52.29478 | -1.61281 | 24071 ft | 286 kts | 157° |
| 2026-05-08 15:38 | 52.27697 | -1.59824 | 24095 ft | 286 kts | 157° |
| 2026-05-08 15:38 | 52.25938 | -1.58382 | 24089 ft | 286 kts | 157° |
| 2026-05-08 15:38 | 52.24166 | -1.56929 | 24091 ft | 284 kts | 157° |
| 2026-05-08 15:39 | 52.22402 | -1.55485 | 24095 ft | 283 kts | 157° |
| 2026-05-08 15:39 | 52.20812 | -1.54186 | 24091 ft | 283 kts | 157° |
| 2026-05-08 15:39 | 52.19046 | -1.52743 | 24093 ft | 282 kts | 157° |
| 2026-05-08 15:39 | 52.17290 | -1.51310 | 24095 ft | 282 kts | 157° |
| 2026-05-08 15:40 | 52.15533 | -1.49877 | 24097 ft | 282 kts | 157° |
| 2026-05-08 15:40 | 52.13777 | -1.48446 | 24092 ft | 282 kts | 157° |
| 2026-05-08 15:40 | 52.12045 | -1.47037 | 24090 ft | 282 kts | 157° |
| 2026-05-08 15:40 | 52.10272 | -1.45597 | 24099 ft | 287 kts | 156° |
| 2026-05-08 15:41 | 52.08470 | -1.44132 | 24100 ft | 290 kts | 156° |
| 2026-05-08 15:41 | 52.06658 | -1.42660 | 24102 ft | 291 kts | 156° |
| 2026-05-08 15:41 | 52.04846 | -1.41191 | 24102 ft | 290 kts | 156° |
| 2026-05-08 15:41 | 52.03043 | -1.39734 | 24070 ft | 289 kts | 156° |
| 2026-05-08 15:42 | 52.01241 | -1.38280 | 24072 ft | 289 kts | 156° |
| 2026-05-08 15:42 | 51.99444 | -1.36830 | 24072 ft | 289 kts | 156° |
| 2026-05-08 15:42 | 51.98253 | -1.35868 | 24072 ft | 289 kts | 156° |
| 2026-05-08 15:42 | 51.95841 | -1.33922 | 24072 ft | 289 kts | 156° |
| 2026-05-08 15:43 | 51.94070 | -1.32490 | 24068 ft | 289 kts | 156° |
| 2026-05-08 15:43 | 51.92268 | -1.31036 | 24069 ft | 288 kts | 156° |
| 2026-05-08 15:43 | 51.90466 | -1.29583 | 24070 ft | 288 kts | 156° |
| 2026-05-08 15:43 | 51.88665 | -1.28133 | 24071 ft | 289 kts | 156° |
| 2026-05-08 15:44 | 51.86861 | -1.26682 | 24070 ft | 289 kts | 156° |
| 2026-05-08 15:44 | 51.85059 | -1.25234 | 24070 ft | 289 kts | 156° |
| 2026-05-08 15:44 | 51.83278 | -1.23804 | 24070 ft | 289 kts | 156° |
| 2026-05-08 15:44 | 51.81475 | -1.22356 | 24069 ft | 289 kts | 156° |
| 2026-05-08 15:45 | 51.79676 | -1.20914 | 24069 ft | 288 kts | 156° |
| 2026-05-08 15:45 | 51.77876 | -1.19472 | 24070 ft | 289 kts | 156° |
| 2026-05-08 15:45 | 51.76661 | -1.18500 | 24070 ft | 289 kts | 156° |
| 2026-05-08 15:45 | 51.74274 | -1.16591 | 24070 ft | 289 kts | 156° |
| 2026-05-08 15:46 | 51.72470 | -1.15150 | 24069 ft | 289 kts | 156° |
| 2026-05-08 15:46 | 51.70665 | -1.13710 | 24070 ft | 289 kts | 156° |
| 2026-05-08 15:46 | 51.68861 | -1.12271 | 24071 ft | 289 kts | 156° |
| 2026-05-08 15:46 | 51.67056 | -1.10833 | 24071 ft | 289 kts | 156° |
| 2026-05-08 15:47 | 51.65251 | -1.09396 | 24071 ft | 289 kts | 156° |
| 2026-05-08 15:47 | 51.63469 | -1.07979 | 24071 ft | 289 kts | 156° |
| 2026-05-08 15:47 | 51.61673 | -1.06525 | 24069 ft | 290 kts | 153° |
| 2026-05-08 15:47 | 51.60010 | -1.04682 | 24073 ft | 291 kts | 147° |
| 2026-05-08 15:48 | 51.56715 | -1.00901 | 24066 ft | 291 kts | 147° |
| 2026-05-08 15:48 | 51.55059 | -0.99020 | 24069 ft | 291 kts | 147° |
| 2026-05-08 15:48 | 51.53402 | -0.97127 | 24069 ft | 291 kts | 147° |
| 2026-05-08 15:49 | 51.51748 | -0.95239 | 24069 ft | 292 kts | 147° |
| 2026-05-08 15:49 | 51.50080 | -0.93339 | 24066 ft | 295 kts | 147° |
| 2026-05-08 15:49 | 51.48398 | -0.91427 | 24069 ft | 297 kts | 147° |
| 2026-05-08 15:49 | 51.46706 | -0.89504 | 24070 ft | 298 kts | 147° |
| 2026-05-08 15:50 | 51.44974 | -0.87700 | 24057 ft | 295 kts | 159° |
| 2026-05-08 15:50 | 51.43019 | -0.87264 | 24065 ft | 287 kts | 192° |
| 2026-05-08 15:50 | 51.41255 | -0.88575 | 24062 ft | 279 kts | 225° |
| 2026-05-08 15:50 | 51.40279 | -0.91174 | 24066 ft | 273 kts | 258° |
| 2026-05-08 15:51 | 51.40399 | -0.94153 | 24078 ft | 271 kts | 291° |
| 2026-05-08 15:51 | 51.41564 | -0.96487 | 24078 ft | 276 kts | 323° |
| 2026-05-08 15:51 | 51.43395 | -0.97418 | 24085 ft | 283 kts | 353° |
| 2026-05-08 15:51 | 51.45374 | -0.97473 | 24082 ft | 284 kts | 356° |
| 2026-05-08 15:52 | 51.47343 | -0.97639 | 24082 ft | 283 kts | 351° |
| 2026-05-08 15:52 | 51.49261 | -0.98062 | 24078 ft | 283 kts | 354° |
| 2026-05-08 15:52 | 51.51182 | -0.97301 | 24070 ft | 292 kts | 28° |
| 2026-05-08 15:52 | 51.51741 | -0.96652 | 24070 ft | 295 kts | 39° |
| 2026-05-08 15:53 | 51.52986 | -0.91698 | 24067 ft | 300 kts | 95° |
| 2026-05-08 15:53 | 51.52276 | -0.88604 | 24071 ft | 297 kts | 128° |
| 2026-05-08 15:53 | 51.50675 | -0.86610 | 24080 ft | 291 kts | 161° |
| 2026-05-08 15:53 | 51.48710 | -0.86081 | 24082 ft | 286 kts | 180° |
| 2026-05-08 15:54 | 51.46721 | -0.85918 | 24081 ft | 286 kts | 179° |
| 2026-05-08 15:54 | 51.44739 | -0.85723 | 24075 ft | 283 kts | 189° |
| 2026-05-08 15:54 | 51.42993 | -0.86895 | 24074 ft | 275 kts | 223° |
| 2026-05-08 15:54 | 51.41987 | -0.89408 | 24082 ft | 269 kts | 257° |
| 2026-05-08 15:55 | 51.42073 | -0.92346 | 24080 ft | 268 kts | 290° |
| 2026-05-08 15:55 | 51.44368 | -0.95494 | 24088 ft | 277 kts | 342° |
| 2026-05-08 15:55 | 51.46907 | -0.96303 | 24086 ft | 280 kts | 346° |
| 2026-05-08 15:56 | 51.48817 | -0.96997 | 24079 ft | 284 kts | 349° |
| 2026-05-08 15:56 | 51.50780 | -0.96539 | 24079 ft | 294 kts | 22° |
| 2026-05-08 15:56 | 51.52332 | -0.94398 | 24081 ft | 300 kts | 55° |
| 2026-05-08 15:56 | 51.52953 | -0.91251 | 24084 ft | 300 kts | 88° |
| 2026-05-08 15:57 | 51.52454 | -0.88053 | 24082 ft | 297 kts | 122° |
| 2026-05-08 15:57 | 51.51000 | -0.85804 | 24084 ft | 291 kts | 155° |
| 2026-05-08 15:57 | 51.49072 | -0.85106 | 24084 ft | 284 kts | 181° |
| 2026-05-08 15:57 | 51.47096 | -0.85116 | 24085 ft | 284 kts | 184° |
| 2026-05-08 15:58 | 51.45112 | -0.84933 | 24078 ft | 288 kts | 172° |
| 2026-05-08 15:58 | 51.43182 | -0.83982 | 24080 ft | 292 kts | 160° |
| 2026-05-08 15:58 | 51.41508 | -0.82120 | 24067 ft | 297 kts | 136° |
| 2026-05-08 15:58 | 51.40169 | -0.79642 | 24074 ft | 298 kts | 131° |
| 2026-05-08 15:59 | 51.38778 | -0.77182 | 24079 ft | 298 kts | 137° |
| 2026-05-08 15:59 | 51.37236 | -0.74966 | 24083 ft | 297 kts | 142° |
| 2026-05-08 15:59 | 51.35662 | -0.72829 | 24081 ft | 298 kts | 141° |
| 2026-05-08 15:59 | 51.34123 | -0.70607 | 24083 ft | 298 kts | 139° |
| 2026-05-08 16:00 | 51.32596 | -0.68344 | 24071 ft | 299 kts | 139° |
| 2026-05-08 16:00 | 51.31056 | -0.66103 | 24071 ft | 299 kts | 140° |
| 2026-05-08 16:00 | 51.29510 | -0.63880 | 24071 ft | 299 kts | 140° |
| 2026-05-08 16:00 | 51.27968 | -0.61655 | 24072 ft | 299 kts | 140° |
| 2026-05-08 16:01 | 51.26423 | -0.59418 | 24074 ft | 299 kts | 140° |
| 2026-05-08 16:01 | 51.25922 | -0.58695 | 24074 ft | 299 kts | 140° |
| 2026-05-08 16:01 | 51.23355 | -0.54992 | 24075 ft | 299 kts | 140° |
| 2026-05-08 16:01 | 51.21808 | -0.52765 | 24074 ft | 299 kts | 140° |
| 2026-05-08 16:02 | 51.20262 | -0.50539 | 24073 ft | 299 kts | 140° |
| 2026-05-08 16:02 | 51.18715 | -0.48315 | 24074 ft | 299 kts | 140° |
| 2026-05-08 16:02 | 51.17168 | -0.46093 | 24074 ft | 299 kts | 140° |
| 2026-05-08 16:02 | 51.15623 | -0.43875 | 24074 ft | 299 kts | 140° |
| 2026-05-08 16:03 | 51.14073 | -0.41652 | 24075 ft | 299 kts | 140° |
| 2026-05-08 16:03 | 51.12525 | -0.39434 | 24075 ft | 299 kts | 140° |
| 2026-05-08 16:03 | 51.10976 | -0.37219 | 24075 ft | 299 kts | 140° |
| 2026-05-08 16:03 | 51.09427 | -0.35004 | 24079 ft | 300 kts | 140° |
| 2026-05-08 16:04 | 51.07874 | -0.32785 | 24074 ft | 300 kts | 140° |
| 2026-05-08 16:04 | 51.06319 | -0.30566 | 24074 ft | 300 kts | 140° |
| 2026-05-08 16:04 | 51.05289 | -0.29098 | 24073 ft | 300 kts | 140° |
| 2026-05-08 16:04 | 51.03232 | -0.26167 | 24073 ft | 299 kts | 140° |
| 2026-05-08 16:05 | 51.01681 | -0.23961 | 24075 ft | 299 kts | 140° |
| 2026-05-08 16:05 | 51.00130 | -0.21755 | 24075 ft | 299 kts | 140° |
| 2026-05-08 16:05 | 50.98579 | -0.19552 | 24075 ft | 299 kts | 140° |
| 2026-05-08 16:05 | 50.97024 | -0.17345 | 24075 ft | 299 kts | 140° |
| 2026-05-08 16:06 | 50.95468 | -0.15140 | 24076 ft | 299 kts | 140° |
| 2026-05-08 16:06 | 50.93914 | -0.12939 | 24076 ft | 299 kts | 140° |
| 2026-05-08 16:06 | 50.92362 | -0.10743 | 24076 ft | 299 kts | 140° |
| 2026-05-08 16:06 | 50.90804 | -0.08541 | 24075 ft | 299 kts | 140° |
| 2026-05-08 16:07 | 50.89251 | -0.06344 | 24075 ft | 299 kts | 140° |
| 2026-05-08 16:07 | 50.88222 | -0.04891 | 24075 ft | 299 kts | 140° |
| 2026-05-08 16:07 | 50.86159 | -0.01990 | 24068 ft | 299 kts | 140° |
| 2026-05-08 16:07 | 50.84602 | 0.00204 | 24069 ft | 300 kts | 139° |
| 2026-05-08 16:08 | 50.83044 | 0.02400 | 24067 ft | 300 kts | 139° |
| 2026-05-08 16:08 | 50.81492 | 0.04583 | 24066 ft | 298 kts | 139° |
| 2026-05-08 16:08 | 50.80462 | 0.06028 | 24065 ft | 298 kts | 139° |
| 2026-05-08 16:08 | 50.79418 | 0.07495 | 24065 ft | 298 kts | 139° |
| 2026-05-08 16:09 | 50.77365 | 0.10373 | 24066 ft | 298 kts | 140° |
| 2026-05-08 16:09 | 50.75806 | 0.12531 | 24064 ft | 297 kts | 142° |
| 2026-05-08 16:09 | 50.74199 | 0.14578 | 24064 ft | 297 kts | 142° |
| 2026-05-08 16:09 | 50.72591 | 0.16646 | 24064 ft | 297 kts | 142° |
| 2026-05-08 16:10 | 50.70989 | 0.18710 | 24063 ft | 297 kts | 142° |
| 2026-05-08 16:10 | 50.69403 | 0.20742 | 24062 ft | 297 kts | 142° |
| 2026-05-08 16:10 | 50.67795 | 0.22796 | 24062 ft | 297 kts | 142° |
| 2026-05-08 16:10 | 50.66189 | 0.24848 | 24061 ft | 297 kts | 142° |
| 2026-05-08 16:11 | 50.64584 | 0.26900 | 24054 ft | 297 kts | 142° |
| 2026-05-08 16:11 | 50.62978 | 0.28949 | 24064 ft | 297 kts | 142° |
| 2026-05-08 16:11 | 50.61367 | 0.31002 | 24064 ft | 298 kts | 142° |
| 2026-05-08 16:11 | 50.60278 | 0.32389 | 24064 ft | 298 kts | 142° |
| 2026-05-08 16:12 | 50.58137 | 0.35114 | 24062 ft | 298 kts | 142° |
| 2026-05-08 16:12 | 50.56522 | 0.37169 | 24065 ft | 298 kts | 142° |
| 2026-05-08 16:12 | 50.54907 | 0.39221 | 24065 ft | 298 kts | 142° |
| 2026-05-08 16:12 | 50.53290 | 0.41274 | 24065 ft | 298 kts | 142° |
| 2026-05-08 16:13 | 50.51673 | 0.43325 | 24066 ft | 298 kts | 142° |
| 2026-05-08 16:13 | 50.50057 | 0.45374 | 24066 ft | 299 kts | 142° |
| 2026-05-08 16:13 | 50.48460 | 0.47395 | 24070 ft | 299 kts | 142° |
| 2026-05-08 16:13 | 50.46832 | 0.49455 | 24069 ft | 301 kts | 142° |
| 2026-05-08 16:14 | 50.45200 | 0.51518 | 24067 ft | 301 kts | 142° |
| 2026-05-08 16:14 | 50.44097 | 0.52909 | 24067 ft | 301 kts | 142° |
| 2026-05-08 16:14 | 50.41789 | 0.55822 | 24061 ft | 302 kts | 142° |
| 2026-05-08 16:14 | 50.40155 | 0.57882 | 24061 ft | 302 kts | 142° |
| 2026-05-08 16:15 | 50.38515 | 0.59946 | 24062 ft | 302 kts | 142° |
| 2026-05-08 16:15 | 50.36874 | 0.62010 | 24062 ft | 303 kts | 142° |
| 2026-05-08 16:15 | 50.35229 | 0.64077 | 24062 ft | 303 kts | 142° |
| 2026-05-08 16:15 | 50.33586 | 0.66140 | 24063 ft | 303 kts | 142° |
| 2026-05-08 16:16 | 50.31943 | 0.68201 | 24057 ft | 303 kts | 142° |
| 2026-05-08 16:16 | 50.30297 | 0.70263 | 23997 ft | 305 kts | 142° |
| 2026-05-08 16:16 | 50.28642 | 0.72334 | 23686 ft | 312 kts | 142° |
| 2026-05-08 16:16 | 50.26954 | 0.74448 | 23245 ft | 306 kts | 142° |
| 2026-05-08 16:17 | 50.25309 | 0.76504 | 22838 ft | 300 kts | 142° |
| 2026-05-08 16:17 | 50.24236 | 0.77844 | 22577 ft | 298 kts | 142° |
| 2026-05-08 16:17 | 50.22070 | 0.80545 | 22049 ft | 298 kts | 142° |
| 2026-05-08 16:17 | 50.20454 | 0.82559 | 21656 ft | 297 kts | 142° |
| 2026-05-08 16:18 | 50.18849 | 0.84576 | 21259 ft | 295 kts | 140° |
| 2026-05-08 16:18 | 50.17450 | 0.86926 | 20874 ft | 297 kts | 131° |
| 2026-05-08 16:18 | 50.16096 | 0.89379 | 20481 ft | 298 kts | 131° |
| 2026-05-08 16:18 | 50.14738 | 0.91791 | 20087 ft | 294 kts | 131° |
| 2026-05-08 16:19 | 50.13402 | 0.94151 | 19700 ft | 293 kts | 132° |
| 2026-05-08 16:19 | 50.12063 | 0.96532 | 19314 ft | 292 kts | 132° |
| 2026-05-08 16:19 | 50.10731 | 0.98902 | 18928 ft | 288 kts | 132° |
| 2026-05-08 16:19 | 50.09414 | 1.01240 | 18546 ft | 284 kts | 133° |
| 2026-05-08 16:20 | 50.08121 | 1.03527 | 18149 ft | 279 kts | 133° |
| 2026-05-08 16:20 | 50.06839 | 1.05795 | 17768 ft | 281 kts | 132° |
| 2026-05-08 16:20 | 50.05538 | 1.08097 | 17394 ft | 284 kts | 133° |
| 2026-05-08 16:20 | 50.04233 | 1.10407 | 17012 ft | 284 kts | 133° |
| 2026-05-08 16:21 | 50.03370 | 1.11930 | 16764 ft | 284 kts | 132° |
| 2026-05-08 16:21 | 50.01618 | 1.15019 | 16262 ft | 285 kts | 132° |
| 2026-05-08 16:21 | 50.00305 | 1.17336 | 15884 ft | 284 kts | 132° |
| 2026-05-08 16:21 | 49.99004 | 1.19629 | 15509 ft | 281 kts | 133° |
| 2026-05-08 16:22 | 49.97708 | 1.21908 | 15142 ft | 281 kts | 133° |
| 2026-05-08 16:22 | 49.96436 | 1.24144 | 14776 ft | 279 kts | 133° |
| 2026-05-08 16:22 | 49.95150 | 1.26403 | 14403 ft | 278 kts | 133° |
| 2026-05-08 16:22 | 49.93832 | 1.28591 | 14026 ft | 276 kts | 140° |
| 2026-05-08 16:23 | 49.92238 | 1.30211 | 13698 ft | 272 kts | 150° |
| 2026-05-08 16:23 | 49.90620 | 1.31712 | 13380 ft | 270 kts | 149° |
| 2026-05-08 16:23 | 49.89016 | 1.33231 | 13067 ft | 269 kts | 149° |
| 2026-05-08 16:23 | 49.87427 | 1.34736 | 12757 ft | 267 kts | 149° |
| 2026-05-08 16:24 | 49.86376 | 1.35726 | 12551 ft | 265 kts | 149° |
| 2026-05-08 16:24 | 49.84273 | 1.37702 | 12140 ft | 264 kts | 149° |
| 2026-05-08 16:24 | 49.82726 | 1.39155 | 11703 ft | 266 kts | 149° |
| 2026-05-08 16:24 | 49.81130 | 1.40654 | 11132 ft | 269 kts | 149° |
| 2026-05-08 16:25 | 49.79526 | 1.42157 | 10580 ft | 268 kts | 148° |
| 2026-05-08 16:25 | 49.77943 | 1.43641 | 10021 ft | 265 kts | 148° |
| 2026-05-08 16:25 | 49.76366 | 1.45117 | 9446 ft | 263 kts | 148° |
| 2026-05-08 16:25 | 49.74811 | 1.46572 | 9031 ft | 257 kts | 148° |
| 2026-05-08 16:26 | 49.73318 | 1.47968 | 9038 ft | 247 kts | 148° |
| 2026-05-08 16:26 | 49.71857 | 1.49335 | 9036 ft | 243 kts | 148° |
| 2026-05-08 16:26 | 49.70409 | 1.50689 | 8913 ft | 246 kts | 148° |
| 2026-05-08 16:26 | 49.68929 | 1.52083 | 8566 ft | 251 kts | 148° |
| 2026-05-08 16:27 | 49.67436 | 1.53492 | 8242 ft | 251 kts | 148° |
| 2026-05-08 16:27 | 49.65940 | 1.54897 | 7912 ft | 251 kts | 147° |
| 2026-05-08 16:27 | 49.64452 | 1.56296 | 7588 ft | 250 kts | 147° |
| 2026-05-08 16:27 | 49.62979 | 1.57718 | 7265 ft | 248 kts | 143° |
| 2026-05-08 16:28 | 49.61920 | 1.59764 | 6948 ft | 245 kts | 115° |
| 2026-05-08 16:28 | 49.61494 | 1.62242 | 6657 ft | 241 kts | 95° |
| 2026-05-08 16:28 | 49.61333 | 1.64806 | 6369 ft | 240 kts | 94° |
| 2026-05-08 16:28 | 49.61170 | 1.67356 | 6072 ft | 238 kts | 94° |
| 2026-05-08 16:29 | 49.60993 | 1.69888 | 5779 ft | 236 kts | 95° |
| 2026-05-08 16:29 | 49.60817 | 1.72393 | 5494 ft | 234 kts | 95° |
| 2026-05-08 16:29 | 49.60646 | 1.74874 | 5213 ft | 231 kts | 95° |
| 2026-05-08 16:29 | 49.60218 | 1.77242 | 5066 ft | 228 kts | 114° |
| 2026-05-08 16:30 | 49.59378 | 1.79295 | 5049 ft | 225 kts | 123° |
| 2026-05-08 16:30 | 49.58506 | 1.81283 | 5049 ft | 218 kts | 122° |
| 2026-05-08 16:30 | 49.57721 | 1.83094 | 4978 ft | 191 kts | 121° |
| 2026-05-08 16:30 | 49.57028 | 1.84687 | 4832 ft | 161 kts | 121° |
| 2026-05-08 16:31 | 49.56451 | 1.85989 | 4688 ft | 136 kts | 121° |
| 2026-05-08 16:31 | 49.55953 | 1.87050 | 4564 ft | 110 kts | 123° |
| 2026-05-08 16:31 | 49.55529 | 1.87886 | 4393 ft | 93 kts | 125° |
| 2026-05-08 16:31 | 49.55116 | 1.88658 | 4065 ft | 94 kts | 125° |
| 2026-05-08 16:32 | 49.54834 | 1.89156 | 3868 ft | 92 kts | 126° |
| 2026-05-08 16:32 | 49.54249 | 1.90136 | 3432 ft | 94 kts | 129° |
| 2026-05-08 16:32 | 49.53794 | 1.90855 | 3126 ft | 93 kts | 131° |
| 2026-05-08 16:32 | 49.53336 | 1.91537 | 3060 ft | 93 kts | 133° |
| 2026-05-08 16:33 | 49.52813 | 1.92284 | 3073 ft | 113 kts | 133° |
| 2026-05-08 16:33 | 49.52187 | 1.93159 | 3072 ft | 129 kts | 135° |
| 2026-05-08 16:33 | 49.51493 | 1.94099 | 3028 ft | 136 kts | 136° |
| 2026-05-08 16:33 | 49.50782 | 1.95036 | 2869 ft | 138 kts | 135° |
| 2026-05-08 16:34 | 49.50279 | 1.96056 | 2618 ft | 109 kts | 112° |
| 2026-05-08 16:34 | 49.49987 | 1.97086 | 2290 ft | 107 kts | 107° |
| 2026-05-08 16:34 | 49.49822 | 1.97814 | 2183 ft | 112 kts | 103° |
| 2026-05-08 16:34 | 49.49555 | 1.99478 | 1993 ft | 129 kts | 100° |
| 2026-05-08 16:35 | 49.49368 | 2.00823 | 1830 ft | 124 kts | 99° |
| 2026-05-08 16:35 | 49.49165 | 2.02114 | 1569 ft | 122 kts | 105° |
| 2026-05-08 16:35 | 49.48857 | 2.03344 | 1444 ft | 126 kts | 108° |
| 2026-05-08 16:35 | 49.48490 | 2.04591 | 1257 ft | 130 kts | 118° |
| 2026-05-08 16:36 | 49.47955 | 2.05687 | 1144 ft | 125 kts | 126° |
| 2026-05-08 16:36 | 49.47386 | 2.06709 | 993 ft | 129 kts | 126° |
| 2026-05-08 16:36 | 49.46889 | 2.07897 | 779 ft | 132 kts | 119° |
| 2026-05-08 16:36 | 49.46420 | 2.09060 | 602 ft | 129 kts | 122° |
| 2026-05-08 16:37 | 49.45912 | 2.10204 | 419 ft | 120 kts | 122° |
| 2026-05-08 16:37 | 49.45531 | 2.11076 | 335 ft | 80 kts | 124° |
| 2026-05-08 16:37 | 49.45350 | 2.11492 | 336 ft | 5 kts | 122° |
| 2026-05-08 16:37 | 49.45334 | 2.11536 | 337 ft | 12 kts | 140° |
| 2026-05-08 16:38 | 49.45359 | 2.11452 | 336 ft | 20 kts | 308° |
| 2026-05-08 16:38 | 49.45428 | 2.11308 | 333 ft | 10 kts | 318° |
| 2026-05-08 16:38 | 49.45472 | 2.11309 | 337 ft | 3 kts | 28° |
| 2026-05-08 16:38 | 49.45522 | 2.11377 | 335 ft | 15 kts | 40° |
| 2026-05-08 16:39 | 49.45602 | 2.11485 | 333 ft | 13 kts | 41° |
| 2026-05-08 16:39 | 49.45660 | 2.11564 | 330 ft | 8 kts | 45° |
| 2026-05-08 16:39 | 49.45713 | 2.11609 | 331 ft | 9 kts | 2° |
| 2026-05-08 16:39 | 49.45762 | 2.11551 | 331 ft | 10 kts | 311° |
| 2026-05-08 16:40 | 49.45784 | 2.11514 | 330 ft | 6 kts | 316° |
| 2026-05-08 16:40 | 49.45793 | 2.11501 | 331 ft | 2 kts | 316° |
| 2026-05-08 16:40 | 49.45786 | 2.11493 | 331 ft | 6 kts | 131° |
| 2026-05-08 16:40 | 49.45733 | 2.11608 | 331 ft | 18 kts | 101° |
| 2026-05-08 16:41 | 49.45808 | 2.11759 | 332 ft | 16 kts | 41° |
| 2026-05-08 16:41 | 49.45898 | 2.11891 | 334 ft | 19 kts | 48° |
| 2026-05-08 16:41 | 49.45941 | 2.11948 | 334 ft | 6 kts | 39° |
| 2026-05-08 16:42 | 49.46029 | 2.12058 | 340 ft | 7 kts | 10° |
| 2026-05-08 16:42 | 49.46078 | 2.11989 | 340 ft | 10 kts | 310° |
| 2026-05-08 16:42 | 49.46133 | 2.12011 | 341 ft | 12 kts | 30° |
| 2026-05-08 16:42 | 49.46203 | 2.12086 | 349 ft | 11 kts | 42° |
| 2026-05-08 16:43 | 49.46233 | 2.12126 | 352 ft | 6 kts | 38° |
| 2026-05-08 16:43 | 49.46231 | 2.12152 | 344 ft | 1 kts | 137° |
| 2026-05-08 16:43 | 49.46230 | 2.12152 | 344 ft | 0 kts | 137° |